Аэропорт: Минеральные Воды. Минеральные Воды

ICAO: URMM

METAR:
2018/11/21 18:30
URMM 211830Z 09004MPS 0200 R12/0600N -DZ FG VV002 02/02 Q1017 R12/290250 NOSIG RMK QBB060 MT OBSC QFE734/0979
METAR:
2018/11/21 18:21
TAF URMM 211659Z 2118/2218 09003G08MPS 0300 -DZ FG OVC002 TX03/2212Z TN01/2202Z 
      TEMPO 2202/2209 3100 BR OVC005 
      BECMG 2209/2211 9999 NSW BKN011 
      TEMPO 2215/2218 3100 BR